sensor_id;sensor_type;location;lat;lon;timestamp;pressure;altitude;pressure_sealevel;temperature;humidity
51067;BME280;37112;45.892;-123.962;2023-04-10T00:01:43;101759.22;;;10.74;100.00
51067;BME280;37112;45.892;-123.962;2023-04-10T00:03:53;101758.15;;;10.74;100.00
51067;BME280;37112;45.892;-123.962;2023-04-10T00:06:04;101760.48;;;10.73;100.00
51067;BME280;37112;45.892;-123.962;2023-04-10T00:08:14;101759.81;;;10.72;100.00
51067;BME280;37112;45.892;-123.962;2023-04-10T00:10:25;101755.23;;;10.72;100.00
51067;BME280;37112;45.892;-123.962;2023-04-10T00:12:36;101757.86;;;10.73;100.00
51067;BME280;37112;45.892;-123.962;2023-04-10T00:14:46;101752.27;;;10.71;100.00
51067;BME280;37112;45.892;-123.962;2023-04-10T00:16:56;101745.20;;;10.71;100.00
51067;BME280;37112;45.892;-123.962;2023-04-10T00:19:06;101750.85;;;10.71;100.00
51067;BME280;37112;45.892;-123.962;2023-04-10T00:21:16;101753.00;;;10.71;100.00
51067;BME280;37112;45.892;-123.962;2023-04-10T00:23:26;101756.08;;;10.70;100.00
51067;BME280;37112;45.892;-123.962;2023-04-10T00:25:39;101760.68;;;10.70;100.00
51067;BME280;37112;45.892;-123.962;2023-04-10T00:27:49;101766.03;;;10.70;100.00
51067;BME280;37112;45.892;-123.962;2023-04-10T00:29:59;101760.02;;;10.69;100.00
51067;BME280;37112;45.892;-123.962;2023-04-10T00:32:10;101760.89;;;10.69;100.00
51067;BME280;37112;45.892;-123.962;2023-04-10T00:34:20;101761.08;;;10.69;100.00
51067;BME280;37112;45.892;-123.962;2023-04-10T00:36:31;101770.65;;;10.69;100.00
51067;BME280;37112;45.892;-123.962;2023-04-10T00:38:40;101770.86;;;10.69;100.00
51067;BME280;37112;45.892;-123.962;2023-04-10T00:40:51;101770.89;;;10.68;100.00
51067;BME280;37112;45.892;-123.962;2023-04-10T00:43:01;101764.27;;;10.66;100.00
51067;BME280;37112;45.892;-123.962;2023-04-10T00:45:12;101765.58;;;10.64;100.00
51067;BME280;37112;45.892;-123.962;2023-04-10T00:47:22;101773.61;;;10.64;100.00
51067;BME280;37112;45.892;-123.962;2023-04-10T00:49:33;101772.23;;;10.63;100.00
51067;BME280;37112;45.892;-123.962;2023-04-10T00:51:43;101782.04;;;10.62;100.00
51067;BME280;37112;45.892;-123.962;2023-04-10T00:53:54;101787.45;;;10.61;100.00
51067;BME280;37112;45.892;-123.962;2023-04-10T00:56:05;101787.48;;;10.60;100.00
51067;BME280;37112;45.892;-123.962;2023-04-10T00:58:16;101789.69;;;10.58;100.00
51067;BME280;37112;45.892;-123.962;2023-04-10T01:00:26;101802.48;;;10.58;100.00
51067;BME280;37112;45.892;-123.962;2023-04-10T01:02:36;101805.52;;;10.58;100.00
51067;BME280;37112;45.892;-123.962;2023-04-10T01:04:46;101816.62;;;10.56;100.00
51067;BME280;37112;45.892;-123.962;2023-04-10T01:07:02;101824.35;;;10.54;100.00
51067;BME280;37112;45.892;-123.962;2023-04-10T01:09:19;101817.31;;;10.53;100.00
51067;BME280;37112;45.892;-123.962;2023-04-10T01:11:48;101815.58;;;10.52;100.00
51067;BME280;37112;45.892;-123.962;2023-04-10T01:14:06;101817.38;;;10.51;100.00
51067;BME280;37112;45.892;-123.962;2023-04-10T01:16:25;101807.48;;;10.51;100.00
51067;BME280;37112;45.892;-123.962;2023-04-10T01:18:40;101814.08;;;10.50;100.00
51067;BME280;37112;45.892;-123.962;2023-04-10T01:20:51;101822.84;;;10.49;100.00
51067;BME280;37112;45.892;-123.962;2023-04-10T01:23:17;101832.11;;;10.48;100.00
51067;BME280;37112;45.892;-123.962;2023-04-10T01:25:40;101832.94;;;10.46;100.00
51067;BME280;37112;45.892;-123.962;2023-04-10T01:28:06;101833.66;;;10.46;100.00
51067;BME280;37112;45.892;-123.962;2023-04-10T01:30:21;101836.85;;;10.46;100.00
51067;BME280;37112;45.892;-123.962;2023-04-10T01:32:34;101837.31;;;10.44;100.00
51067;BME280;37112;45.892;-123.962;2023-04-10T01:34:48;101840.75;;;10.42;100.00
51067;BME280;37112;45.892;-123.962;2023-04-10T01:37:01;101850.40;;;10.41;100.00
51067;BME280;37112;45.892;-123.962;2023-04-10T01:39:13;101853.64;;;10.40;100.00
51067;BME280;37112;45.892;-123.962;2023-04-10T01:41:26;101860.58;;;10.40;100.00
51067;BME280;37112;45.892;-123.962;2023-04-10T01:43:38;101860.09;;;10.39;100.00
51067;BME280;37112;45.892;-123.962;2023-04-10T01:45:50;101855.90;;;10.37;100.00
51067;BME280;37112;45.892;-123.962;2023-04-10T01:48:01;101853.98;;;10.37;100.00
51067;BME280;37112;45.892;-123.962;2023-04-10T01:50:12;101855.77;;;10.37;100.00
51067;BME280;37112;45.892;-123.962;2023-04-10T01:52:23;101853.63;;;10.37;100.00
51067;BME280;37112;45.892;-123.962;2023-04-10T01:54:45;101846.60;;;10.35;100.00
51067;BME280;37112;45.892;-123.962;2023-04-10T01:57:02;101846.07;;;10.35;100.00
51067;BME280;37112;45.892;-123.962;2023-04-10T01:59:21;101853.55;;;10.34;100.00
51067;BME280;37112;45.892;-123.962;2023-04-10T02:01:31;101861.91;;;10.34;100.00
51067;BME280;37112;45.892;-123.962;2023-04-10T02:03:42;101866.30;;;10.31;100.00
51067;BME280;37112;45.892;-123.962;2023-04-10T02:06:00;101864.38;;;10.30;100.00
51067;BME280;37112;45.892;-123.962;2023-04-10T02:08:19;101864.96;;;10.29;100.00
51067;BME280;37112;45.892;-123.962;2023-04-10T02:10:35;101868.75;;;10.28;100.00
51067;BME280;37112;45.892;-123.962;2023-04-10T02:12:47;101863.26;;;10.28;100.00
51067;BME280;37112;45.892;-123.962;2023-04-10T02:15:02;101869.16;;;10.27;100.00
51067;BME280;37112;45.892;-123.962;2023-04-10T02:17:17;101878.05;;;10.27;100.00
51067;BME280;37112;45.892;-123.962;2023-04-10T02:19:30;101880.52;;;10.27;100.00
51067;BME280;37112;45.892;-123.962;2023-04-10T02:21:41;101880.04;;;10.26;100.00
51067;BME280;37112;45.892;-123.962;2023-04-10T02:23:52;101888.09;;;10.25;100.00
51067;BME280;37112;45.892;-123.962;2023-04-10T02:26:08;101883.49;;;10.24;100.00
51067;BME280;37112;45.892;-123.962;2023-04-10T02:28:19;101884.39;;;10.24;100.00
51067;BME280;37112;45.892;-123.962;2023-04-10T02:30:29;101889.54;;;10.24;100.00
51067;BME280;37112;45.892;-123.962;2023-04-10T02:32:40;101889.21;;;10.24;100.00
51067;BME280;37112;45.892;-123.962;2023-04-10T02:34:51;101895.68;;;10.22;100.00
51067;BME280;37112;45.892;-123.962;2023-04-10T02:37:01;101902.50;;;10.20;100.00
51067;BME280;37112;45.892;-123.962;2023-04-10T02:39:10;101899.86;;;10.19;100.00
51067;BME280;37112;45.892;-123.962;2023-04-10T02:41:29;101906.30;;;10.18;100.00
51067;BME280;37112;45.892;-123.962;2023-04-10T02:43:40;101907.60;;;10.17;100.00
51067;BME280;37112;45.892;-123.962;2023-04-10T02:45:50;101907.67;;;10.15;100.00
51067;BME280;37112;45.892;-123.962;2023-04-10T02:48:06;101912.61;;;10.13;100.00
51067;BME280;37112;45.892;-123.962;2023-04-10T02:50:16;101916.57;;;10.11;100.00
51067;BME280;37112;45.892;-123.962;2023-04-10T02:52:26;101913.84;;;10.09;100.00
51067;BME280;37112;45.892;-123.962;2023-04-10T02:54:37;101909.65;;;10.08;100.00
51067;BME280;37112;45.892;-123.962;2023-04-10T02:56:47;101915.52;;;10.07;100.00
51067;BME280;37112;45.892;-123.962;2023-04-10T02:58:57;101923.92;;;10.06;100.00
51067;BME280;37112;45.892;-123.962;2023-04-10T03:01:07;101920.36;;;10.07;100.00
51067;BME280;37112;45.892;-123.962;2023-04-10T03:03:23;101926.58;;;10.06;100.00
51067;BME280;37112;45.892;-123.962;2023-04-10T03:05:34;101930.31;;;10.06;100.00
51067;BME280;37112;45.892;-123.962;2023-04-10T03:07:44;101924.13;;;10.05;100.00
51067;BME280;37112;45.892;-123.962;2023-04-10T03:09:54;101923.05;;;10.06;100.00
51067;BME280;37112;45.892;-123.962;2023-04-10T03:12:04;101929.83;;;10.05;100.00
51067;BME280;37112;45.892;-123.962;2023-04-10T03:14:14;101930.20;;;10.04;100.00
51067;BME280;37112;45.892;-123.962;2023-04-10T03:16:25;101934.63;;;10.05;100.00
51067;BME280;37112;45.892;-123.962;2023-04-10T03:18:35;101938.89;;;10.04;100.00
51067;BME280;37112;45.892;-123.962;2023-04-10T03:20:45;101944.95;;;10.04;100.00
51067;BME280;37112;45.892;-123.962;2023-04-10T03:22:57;101948.52;;;10.04;100.00
51067;BME280;37112;45.892;-123.962;2023-04-10T03:25:09;101951.88;;;10.04;100.00
51067;BME280;37112;45.892;-123.962;2023-04-10T03:27:19;101957.19;;;10.04;100.00
51067;BME280;37112;45.892;-123.962;2023-04-10T03:29:29;101961.08;;;10.04;100.00
51067;BME280;37112;45.892;-123.962;2023-04-10T03:31:40;101965.36;;;10.04;100.00
51067;BME280;37112;45.892;-123.962;2023-04-10T03:33:50;101966.67;;;10.02;100.00
51067;BME280;37112;45.892;-123.962;2023-04-10T03:36:00;101971.02;;;10.00;100.00
51067;BME280;37112;45.892;-123.962;2023-04-10T03:38:12;101979.16;;;10.01;100.00
51067;BME280;37112;45.892;-123.962;2023-04-10T03:40:22;101983.75;;;10.01;100.00
51067;BME280;37112;45.892;-123.962;2023-04-10T03:42:33;101983.28;;;10.03;100.00
51067;BME280;37112;45.892;-123.962;2023-04-10T03:44:43;101979.55;;;10.04;100.00
51067;BME280;37112;45.892;-123.962;2023-04-10T03:46:53;101984.09;;;10.06;100.00
51067;BME280;37112;45.892;-123.962;2023-04-10T03:49:03;101995.20;;;10.03;100.00
51067;BME280;37112;45.892;-123.962;2023-04-10T03:51:14;101995.59;;;10.02;100.00
51067;BME280;37112;45.892;-123.962;2023-04-10T03:53:24;102004.61;;;10.03;100.00
51067;BME280;37112;45.892;-123.962;2023-04-10T03:55:35;102006.38;;;10.03;100.00
51067;BME280;37112;45.892;-123.962;2023-04-10T03:57:45;102017.16;;;10.04;100.00
51067;BME280;37112;45.892;-123.962;2023-04-10T03:59:57;102025.29;;;10.05;100.00
51067;BME280;37112;45.892;-123.962;2023-04-10T04:02:14;102030.45;;;10.05;100.00
51067;BME280;37112;45.892;-123.962;2023-04-10T04:04:24;102037.41;;;10.04;100.00
51067;BME280;37112;45.892;-123.962;2023-04-10T04:07:01;102032.93;;;10.05;100.00
51067;BME280;37112;45.892;-123.962;2023-04-10T04:09:31;102033.23;;;10.06;100.00
51067;BME280;37112;45.892;-123.962;2023-04-10T04:12:15;102048.20;;;10.09;100.00
51067;BME280;37112;45.892;-123.962;2023-04-10T04:14:51;102050.17;;;10.08;100.00
51067;BME280;37112;45.892;-123.962;2023-04-10T04:17:37;102058.83;;;10.09;100.00
51067;BME280;37112;45.892;-123.962;2023-04-10T04:19:47;102067.35;;;10.09;100.00
51067;BME280;37112;45.892;-123.962;2023-04-10T04:22:18;102066.60;;;10.10;100.00
51067;BME280;37112;45.892;-123.962;2023-04-10T04:24:43;102062.12;;;10.11;100.00
51067;BME280;37112;45.892;-123.962;2023-04-10T04:26:57;102057.73;;;10.10;100.00
51067;BME280;37112;45.892;-123.962;2023-04-10T04:29:27;102055.96;;;10.10;100.00
51067;BME280;37112;45.892;-123.962;2023-04-10T04:31:59;102054.48;;;10.11;100.00
51067;BME280;37112;45.892;-123.962;2023-04-10T04:34:29;102055.02;;;10.11;100.00
51067;BME280;37112;45.892;-123.962;2023-04-10T04:36:49;102054.95;;;10.13;100.00
51067;BME280;37112;45.892;-123.962;2023-04-10T04:39:11;102055.50;;;10.12;100.00
51067;BME280;37112;45.892;-123.962;2023-04-10T04:41:44;102051.08;;;10.12;100.00
51067;BME280;37112;45.892;-123.962;2023-04-10T04:44:17;102048.54;;;10.13;100.00
51067;BME280;37112;45.892;-123.962;2023-04-10T04:46:40;102049.11;;;10.12;100.00
51067;BME280;37112;45.892;-123.962;2023-04-10T04:49:09;102053.75;;;10.12;100.00
51067;BME280;37112;45.892;-123.962;2023-04-10T04:51:38;102057.29;;;10.12;100.00
51067;BME280;37112;45.892;-123.962;2023-04-10T04:53:53;102058.13;;;10.13;100.00
51067;BME280;37112;45.892;-123.962;2023-04-10T04:56:35;102061.19;;;10.12;100.00
51067;BME280;37112;45.892;-123.962;2023-04-10T04:58:48;102064.05;;;10.12;100.00
51067;BME280;37112;45.892;-123.962;2023-04-10T05:01:16;102062.78;;;10.12;100.00
51067;BME280;37112;45.892;-123.962;2023-04-10T05:03:33;102063.59;;;10.14;100.00
51067;BME280;37112;45.892;-123.962;2023-04-10T05:06:04;102066.71;;;10.15;100.00
51067;BME280;37112;45.892;-123.962;2023-04-10T05:08:34;102077.73;;;10.15;100.00
51067;BME280;37112;45.892;-123.962;2023-04-10T05:11:20;102078.89;;;10.13;100.00
51067;BME280;37112;45.892;-123.962;2023-04-10T05:13:36;102075.87;;;10.09;100.00
51067;BME280;37112;45.892;-123.962;2023-04-10T05:16:00;102080.39;;;10.07;100.00
51067;BME280;37112;45.892;-123.962;2023-04-10T05:18:39;102086.20;;;10.08;100.00
51067;BME280;37112;45.892;-123.962;2023-04-10T05:21:19;102078.80;;;10.11;100.00
51067;BME280;37112;45.892;-123.962;2023-04-10T05:23:51;102082.39;;;10.14;100.00
51067;BME280;37112;45.892;-123.962;2023-04-10T05:26:17;102078.55;;;10.16;100.00
51067;BME280;37112;45.892;-123.962;2023-04-10T05:28:56;102077.73;;;10.18;100.00
51067;BME280;37112;45.892;-123.962;2023-04-10T05:31:09;102068.54;;;10.18;100.00
51067;BME280;37112;45.892;-123.962;2023-04-10T05:33:45;102066.91;;;10.15;100.00
51067;BME280;37112;45.892;-123.962;2023-04-10T05:36:05;102066.33;;;10.12;100.00
51067;BME280;37112;45.892;-123.962;2023-04-10T05:38:44;102066.90;;;10.11;100.00
51067;BME280;37112;45.892;-123.962;2023-04-10T05:41:20;102061.79;;;10.10;100.00
51067;BME280;37112;45.892;-123.962;2023-04-10T05:43:58;102055.52;;;10.08;100.00
51067;BME280;37112;45.892;-123.962;2023-04-10T05:46:44;102057.80;;;10.04;100.00
51067;BME280;37112;45.892;-123.962;2023-04-10T05:48:57;102062.44;;;10.04;100.00
51067;BME280;37112;45.892;-123.962;2023-04-10T05:51:20;102060.84;;;10.04;100.00
51067;BME280;37112;45.892;-123.962;2023-04-10T05:53:58;102055.20;;;10.02;100.00
51067;BME280;37112;45.892;-123.962;2023-04-10T05:56:41;102054.51;;;9.98;100.00
51067;BME280;37112;45.892;-123.962;2023-04-10T05:59:14;102050.52;;;9.96;100.00
51067;BME280;37112;45.892;-123.962;2023-04-10T06:01:47;102047.19;;;9.95;100.00
51067;BME280;37112;45.892;-123.962;2023-04-10T06:03:56;102051.40;;;9.92;100.00
51067;BME280;37112;45.892;-123.962;2023-04-10T06:06:08;102054.02;;;9.93;100.00
51067;BME280;37112;45.892;-123.962;2023-04-10T06:08:20;102054.48;;;9.95;100.00
51067;BME280;37112;45.892;-123.962;2023-04-10T06:10:31;102054.77;;;9.97;100.00
51067;BME280;37112;45.892;-123.962;2023-04-10T06:12:42;102059.09;;;9.99;100.00
51067;BME280;37112;45.892;-123.962;2023-04-10T06:14:52;102055.27;;;10.01;100.00
51067;BME280;37112;45.892;-123.962;2023-04-10T06:17:03;102055.89;;;10.03;100.00
51067;BME280;37112;45.892;-123.962;2023-04-10T06:19:14;102051.19;;;10.05;100.00
51067;BME280;37112;45.892;-123.962;2023-04-10T06:21:24;102047.94;;;10.07;100.00
51067;BME280;37112;45.892;-123.962;2023-04-10T06:23:34;102044.96;;;10.06;100.00
51067;BME280;37112;45.892;-123.962;2023-04-10T06:25:44;102037.09;;;9.99;100.00
51067;BME280;37112;45.892;-123.962;2023-04-10T06:27:55;102034.80;;;9.94;100.00
51067;BME280;37112;45.892;-123.962;2023-04-10T06:30:06;102033.58;;;9.90;100.00
51067;BME280;37112;45.892;-123.962;2023-04-10T06:32:16;102027.95;;;9.85;100.00
51067;BME280;37112;45.892;-123.962;2023-04-10T06:34:28;102024.20;;;9.82;100.00
51067;BME280;37112;45.892;-123.962;2023-04-10T06:36:41;102016.59;;;9.76;100.00
51067;BME280;37112;45.892;-123.962;2023-04-10T06:38:51;102011.98;;;9.72;100.00
51067;BME280;37112;45.892;-123.962;2023-04-10T06:41:02;102009.98;;;9.70;100.00
51067;BME280;37112;45.892;-123.962;2023-04-10T06:43:13;102005.38;;;9.66;100.00
51067;BME280;37112;45.892;-123.962;2023-04-10T06:45:23;102013.69;;;9.62;100.00
51067;BME280;37112;45.892;-123.962;2023-04-10T06:47:33;102018.67;;;9.58;100.00
51067;BME280;37112;45.892;-123.962;2023-04-10T06:49:43;102019.30;;;9.55;100.00
51067;BME280;37112;45.892;-123.962;2023-04-10T06:51:52;102019.00;;;9.54;100.00
51067;BME280;37112;45.892;-123.962;2023-04-10T06:54:02;102019.85;;;9.55;100.00
51067;BME280;37112;45.892;-123.962;2023-04-10T06:56:13;102014.83;;;9.56;100.00
51067;BME280;37112;45.892;-123.962;2023-04-10T06:58:23;102012.89;;;9.56;100.00
51067;BME280;37112;45.892;-123.962;2023-04-10T07:00:33;102011.72;;;9.54;100.00
51067;BME280;37112;45.892;-123.962;2023-04-10T07:02:43;102005.65;;;9.51;100.00
51067;BME280;37112;45.892;-123.962;2023-04-10T07:04:53;102000.75;;;9.50;100.00
51067;BME280;37112;45.892;-123.962;2023-04-10T07:07:04;102008.30;;;9.51;100.00
51067;BME280;37112;45.892;-123.962;2023-04-10T07:09:17;102005.60;;;9.53;100.00
51067;BME280;37112;45.892;-123.962;2023-04-10T07:11:26;102010.09;;;9.51;100.00
51067;BME280;37112;45.892;-123.962;2023-04-10T07:13:36;102008.05;;;9.48;100.00
51067;BME280;37112;45.892;-123.962;2023-04-10T07:15:47;101996.38;;;9.48;100.00
51067;BME280;37112;45.892;-123.962;2023-04-10T07:17:57;101996.91;;;9.47;100.00
51067;BME280;37112;45.892;-123.962;2023-04-10T07:20:09;101999.45;;;9.47;100.00
51067;BME280;37112;45.892;-123.962;2023-04-10T07:22:18;101993.04;;;9.43;100.00
51067;BME280;37112;45.892;-123.962;2023-04-10T07:24:28;101993.42;;;9.42;100.00
51067;BME280;37112;45.892;-123.962;2023-04-10T07:26:39;101988.88;;;9.41;100.00
51067;BME280;37112;45.892;-123.962;2023-04-10T07:28:49;101985.86;;;9.41;100.00
51067;BME280;37112;45.892;-123.962;2023-04-10T07:30:59;101981.23;;;9.41;100.00
51067;BME280;37112;45.892;-123.962;2023-04-10T07:33:11;101979.31;;;9.40;100.00
51067;BME280;37112;45.892;-123.962;2023-04-10T07:35:21;101977.88;;;9.41;100.00
51067;BME280;37112;45.892;-123.962;2023-04-10T07:37:32;101979.27;;;9.42;100.00
51067;BME280;37112;45.892;-123.962;2023-04-10T07:39:42;101977.09;;;9.43;100.00
51067;BME280;37112;45.892;-123.962;2023-04-10T07:41:53;101979.15;;;9.45;100.00
51067;BME280;37112;45.892;-123.962;2023-04-10T07:44:03;101981.15;;;9.47;100.00
51067;BME280;37112;45.892;-123.962;2023-04-10T07:46:14;101982.73;;;9.48;100.00
51067;BME280;37112;45.892;-123.962;2023-04-10T07:48:24;101984.19;;;9.47;100.00
51067;BME280;37112;45.892;-123.962;2023-04-10T07:50:34;101987.28;;;9.45;100.00
51067;BME280;37112;45.892;-123.962;2023-04-10T07:52:44;101991.38;;;9.45;100.00
51067;BME280;37112;45.892;-123.962;2023-04-10T07:54:54;101990.80;;;9.46;100.00
51067;BME280;37112;45.892;-123.962;2023-04-10T07:57:04;101994.51;;;9.46;100.00
51067;BME280;37112;45.892;-123.962;2023-04-10T07:59:14;101996.73;;;9.47;100.00
51067;BME280;37112;45.892;-123.962;2023-04-10T08:01:24;101995.96;;;9.49;100.00
51067;BME280;37112;45.892;-123.962;2023-04-10T08:03:40;101998.76;;;9.51;100.00
51067;BME280;37112;45.892;-123.962;2023-04-10T08:05:50;101991.81;;;9.51;100.00
51067;BME280;37112;45.892;-123.962;2023-04-10T08:08:00;101993.11;;;9.50;100.00
51067;BME280;37112;45.892;-123.962;2023-04-10T08:10:11;101986.27;;;9.48;100.00
51067;BME280;37112;45.892;-123.962;2023-04-10T08:12:21;101986.92;;;9.45;100.00
51067;BME280;37112;45.892;-123.962;2023-04-10T08:14:31;101985.76;;;9.43;100.00
51067;BME280;37112;45.892;-123.962;2023-04-10T08:16:40;101989.55;;;9.42;100.00
51067;BME280;37112;45.892;-123.962;2023-04-10T08:18:50;101991.73;;;9.41;100.00
51067;BME280;37112;45.892;-123.962;2023-04-10T08:21:01;101993.34;;;9.40;100.00
51067;BME280;37112;45.892;-123.962;2023-04-10T08:23:11;101992.50;;;9.39;100.00
51067;BME280;37112;45.892;-123.962;2023-04-10T08:25:27;101984.88;;;9.39;100.00
51067;BME280;37112;45.892;-123.962;2023-04-10T08:27:38;101981.89;;;9.39;100.00
51067;BME280;37112;45.892;-123.962;2023-04-10T08:29:48;101977.98;;;9.39;100.00
51067;BME280;37112;45.892;-123.962;2023-04-10T08:31:58;101972.34;;;9.38;100.00
51067;BME280;37112;45.892;-123.962;2023-04-10T08:34:08;101968.70;;;9.36;100.00
51067;BME280;37112;45.892;-123.962;2023-04-10T08:36:18;101976.00;;;9.35;100.00
51067;BME280;37112;45.892;-123.962;2023-04-10T08:38:28;101979.83;;;9.33;100.00
51067;BME280;37112;45.892;-123.962;2023-04-10T08:40:39;101973.39;;;9.30;100.00
51067;BME280;37112;45.892;-123.962;2023-04-10T08:42:51;101970.61;;;9.29;100.00
51067;BME280;37112;45.892;-123.962;2023-04-10T08:45:01;101965.15;;;9.28;100.00
51067;BME280;37112;45.892;-123.962;2023-04-10T08:47:14;101963.92;;;9.28;100.00
51067;BME280;37112;45.892;-123.962;2023-04-10T08:49:35;101965.88;;;9.28;100.00
51067;BME280;37112;45.892;-123.962;2023-04-10T08:51:50;101962.84;;;9.28;100.00
51067;BME280;37112;45.892;-123.962;2023-04-10T08:54:06;101968.27;;;9.30;100.00
51067;BME280;37112;45.892;-123.962;2023-04-10T08:56:17;101970.27;;;9.32;100.00
51067;BME280;37112;45.892;-123.962;2023-04-10T08:58:29;101973.79;;;9.33;100.00
51067;BME280;37112;45.892;-123.962;2023-04-10T09:00:39;101976.05;;;9.34;100.00
51067;BME280;37112;45.892;-123.962;2023-04-10T09:02:50;101978.76;;;9.33;100.00
51067;BME280;37112;45.892;-123.962;2023-04-10T09:05:07;101976.70;;;9.31;100.00
51067;BME280;37112;45.892;-123.962;2023-04-10T09:07:19;101971.92;;;9.31;100.00
51067;BME280;37112;45.892;-123.962;2023-04-10T09:09:30;101968.70;;;9.32;100.00
51067;BME280;37112;45.892;-123.962;2023-04-10T09:12:00;101966.40;;;9.32;100.00
51067;BME280;37112;45.892;-123.962;2023-04-10T09:14:21;101963.27;;;9.31;100.00
51067;BME280;37112;45.892;-123.962;2023-04-10T09:16:31;101960.03;;;9.28;100.00
51067;BME280;37112;45.892;-123.962;2023-04-10T09:18:49;101955.88;;;9.25;100.00
51067;BME280;37112;45.892;-123.962;2023-04-10T09:21:09;101950.15;;;9.22;100.00
51067;BME280;37112;45.892;-123.962;2023-04-10T09:23:23;101951.86;;;9.19;100.00
51067;BME280;37112;45.892;-123.962;2023-04-10T09:25:36;101952.10;;;9.18;100.00
51067;BME280;37112;45.892;-123.962;2023-04-10T09:27:47;101942.34;;;9.18;100.00
51067;BME280;37112;45.892;-123.962;2023-04-10T09:30:10;101933.38;;;9.16;100.00
51067;BME280;37112;45.892;-123.962;2023-04-10T09:32:37;101928.45;;;9.15;100.00
51067;BME280;37112;45.892;-123.962;2023-04-10T09:34:57;101928.67;;;9.14;100.00
51067;BME280;37112;45.892;-123.962;2023-04-10T09:37:07;101925.75;;;9.12;100.00
51067;BME280;37112;45.892;-123.962;2023-04-10T09:39:17;101924.34;;;9.12;100.00
51067;BME280;37112;45.892;-123.962;2023-04-10T09:41:28;101923.30;;;9.12;100.00
51067;BME280;37112;45.892;-123.962;2023-04-10T09:43:38;101919.41;;;9.11;100.00
51067;BME280;37112;45.892;-123.962;2023-04-10T09:45:51;101923.23;;;9.09;100.00
51067;BME280;37112;45.892;-123.962;2023-04-10T09:48:05;101932.33;;;9.08;100.00
51067;BME280;37112;45.892;-123.962;2023-04-10T09:50:15;101940.70;;;9.06;100.00
51067;BME280;37112;45.892;-123.962;2023-04-10T09:52:26;101943.77;;;9.05;100.00
51067;BME280;37112;45.892;-123.962;2023-04-10T09:54:39;101952.44;;;9.06;100.00
51067;BME280;37112;45.892;-123.962;2023-04-10T09:56:50;101950.17;;;9.05;100.00
51067;BME280;37112;45.892;-123.962;2023-04-10T09:59:02;101948.96;;;9.04;100.00
51067;BME280;37112;45.892;-123.962;2023-04-10T10:01:13;101952.36;;;9.03;100.00
51067;BME280;37112;45.892;-123.962;2023-04-10T10:03:23;101948.70;;;9.02;100.00
51067;BME280;37112;45.892;-123.962;2023-04-10T10:05:35;101934.36;;;9.01;100.00
51067;BME280;37112;45.892;-123.962;2023-04-10T10:07:45;101908.94;;;8.99;100.00
51067;BME280;37112;45.892;-123.962;2023-04-10T10:09:55;101906.30;;;8.95;100.00
51067;BME280;37112;45.892;-123.962;2023-04-10T10:12:06;101923.60;;;8.92;100.00
51067;BME280;37112;45.892;-123.962;2023-04-10T10:14:19;101930.92;;;8.90;100.00
51067;BME280;37112;45.892;-123.962;2023-04-10T10:16:35;101931.56;;;8.87;100.00
51067;BME280;37112;45.892;-123.962;2023-04-10T10:18:53;101921.69;;;8.86;100.00
51067;BME280;37112;45.892;-123.962;2023-04-10T10:21:05;101918.98;;;8.88;100.00
51067;BME280;37112;45.892;-123.962;2023-04-10T10:23:18;101920.50;;;8.90;100.00
51067;BME280;37112;45.892;-123.962;2023-04-10T10:25:28;101914.33;;;8.89;100.00
51067;BME280;37112;45.892;-123.962;2023-04-10T10:27:40;101904.76;;;8.89;100.00
51067;BME280;37112;45.892;-123.962;2023-04-10T10:30:15;101884.65;;;8.87;100.00
51067;BME280;37112;45.892;-123.962;2023-04-10T10:32:36;101883.41;;;8.83;100.00
51067;BME280;37112;45.892;-123.962;2023-04-10T10:34:49;101896.63;;;8.80;100.00
51067;BME280;37112;45.892;-123.962;2023-04-10T10:37:00;101894.02;;;8.79;100.00
51067;BME280;37112;45.892;-123.962;2023-04-10T10:39:30;101893.39;;;8.77;100.00
51067;BME280;37112;45.892;-123.962;2023-04-10T10:41:46;101892.50;;;8.77;100.00
51067;BME280;37112;45.892;-123.962;2023-04-10T10:44:05;101884.58;;;8.76;100.00
51067;BME280;37112;45.892;-123.962;2023-04-10T10:46:19;101888.92;;;8.74;100.00
51067;BME280;37112;45.892;-123.962;2023-04-10T10:48:32;101898.56;;;8.72;100.00
51067;BME280;37112;45.892;-123.962;2023-04-10T10:50:56;101895.56;;;8.68;100.00
51067;BME280;37112;45.892;-123.962;2023-04-10T10:53:06;101882.52;;;8.66;100.00
51067;BME280;37112;45.892;-123.962;2023-04-10T10:55:32;101868.63;;;8.63;100.00
51067;BME280;37112;45.892;-123.962;2023-04-10T10:57:49;101868.25;;;8.59;100.00
51067;BME280;37112;45.892;-123.962;2023-04-10T10:59:59;101873.27;;;8.59;100.00
51067;BME280;37112;45.892;-123.962;2023-04-10T11:02:16;101873.36;;;8.60;100.00
51067;BME280;37112;45.892;-123.962;2023-04-10T11:04:42;101877.33;;;8.63;100.00
51067;BME280;37112;45.892;-123.962;2023-04-10T11:06:53;101865.39;;;8.65;100.00
51067;BME280;37112;45.892;-123.962;2023-04-10T11:09:03;101857.32;;;8.68;100.00
51067;BME280;37112;45.892;-123.962;2023-04-10T11:11:15;101851.80;;;8.68;100.00
51067;BME280;37112;45.892;-123.962;2023-04-10T11:13:26;101848.86;;;8.66;100.00
51067;BME280;37112;45.892;-123.962;2023-04-10T11:15:36;101843.29;;;8.64;100.00